AirNav   Pilot Hours Calculator
 
 866 users online  

24NE Orr Airport
Lakeside, Nebraska, USA

GOING TO LAKESIDE?


FAA INFORMATION EFFECTIVE 03 NOVEMBER 2022

Location

FAA Identifier: 24NE
Lat/Long: 42-23-01.9050N 102-26-19.7100W
42-23.031750N 102-26.328500W
42.3838625,-102.4388083
(estimated)
Elevation: 3827 ft. / 1166.5 m (surveyed)
Variation: 10E (1985)
From city: 20 miles N of LAKESIDE, NE
Time zone: UTC -7 (UTC -6 during Daylight Saving Time)
Zip code: 69351

Airport Operations

Airport use: Private use. Permission required prior to landing
Activation date: 09/1980
Control tower: no
ARTCC: DENVER CENTER
FSS: COLUMBUS FLIGHT SERVICE STATION
Attendance: UNATNDD
Wind indicator: yes
Segmented circle: no

Nearby radio navigation aids

VOR radial/distance  VOR name  Freq  Var
AIAr029/25.5ALLIANCE VOR/DME111.8011E

 
NDB name  Hdg/Dist  Freq  Var  ID
GORDON196/27.541409EGRN --. .-. -.
WHITNEY126/39.427507EHIN .... .. -.

Airport Services

Runway Information

Runway 15/33

Dimensions: 2300 x 20 ft. / 701 x 6 m
Surface: asphalt/turf
ASPH 10' WIDE WITH 5' TURF EACH SIDE.
RUNWAY 15  RUNWAY 33
Traffic pattern: leftleft

Runway 9/27

Dimensions: 1500 x 50 ft. / 457 x 15 m
Surface: turf
RUNWAY 9  RUNWAY 27
Traffic pattern: leftleft

Airport Ownership and Management from official FAA records

Ownership: Privately-owned
Owner: LEO E ORR
3232 357TH TRAIL
LAKESIDE, NE 69351
Phone 308-327-2886
Manager: LEO E ORR
3232 357TH TRAIL
LAKESIDE, NE 69351
Phone 308-327-2886

Additional Remarks

OWNER DESIRES ARPT NOT BE CHARTED.
FOR CD CTC DENVER ARTCC AT 303-651-4257.

Instrument Procedures

There are no published instrument procedures at 24NE.

Some nearby airports with instrument procedures:

9V5 - Modisett Airport (21 nm N)
KAIA - Alliance Municipal Airport (26 nm SW)
KGRN - Gordon Municipal Airport (28 nm NE)
KIEN - Pine Ridge Airport (38 nm N)
KCDR - Chadron Municipal Airport (40 nm NW)
 
Loc | Ops | Rwys | IFR | FBO | Links
Com | Nav | Svcs | Stats | Notes
Area around 24NE (Orr Airport)
 
Road maps at: MapQuest Bing Google
 
Aerial photo
No photo
 
Sectional chart

 
Airport distance calculator
Flying to Orr Airport? Find the distance to fly.

From to 24NE

Sunrise and sunset
Times for 30-Nov-2022
 Local
(UTC-7)
 Zulu
(UTC)
Morning civil twilight06:2813:28
Sunrise06:5913:59
Sunset16:1823:18
Evening civil twilight16:4923:49

Current date and time
Zulu (UTC)  01-Dec-2022 04:02:32
Local (UTC-7)  30-Nov-2022 21:02:32
 
METAR
KAIA 
26nm SW 
010353Z AUTO 15009KT 10SM CLR M05/M09 A2992 RMK AO2 SLP187 T10501094
KGRN 
28nm NE 
010355Z AUTO 20011G15KT 10SM CLR M02/M08 A2989 RMK AO2 T10251084
KIEN 
39nm N 
010352Z AUTO 23008KT 10SM CLR M02/M08 A2987 RMK AO2 PK WND 21026/0257 SLP154 T10221078
KCDR 
40nm NW 
010353Z AUTO 23016KT 10SM CLR 00/M07 A2984 RMK AO2 PK WND 21026/0327 SLP155 T00001067
TAF
KAIA 
26nm SW 
301725Z 3018/0118 18009KT P6SM FEW200 FM302100 19015G22KT P6SM FEW200 FM302300 17015KT P6SM FEW200 FM011200 22010KT P6SM FEW200
NOTAMs
Click for the latest NOTAMs
NOTAMs are issued by the DoD/FAA and will open in a separate window not controlled by AirNav.

 

 
 

Would you like to see your business listed on this page?

 If your business provides an interesting product or service to pilots, flight crews, aircraft, or users of the Orr Airport, you should consider listing it here.  To start the listing process, click on the button below
 
Add a business
 

Other Pages about Orr Airport

Update a link
 
Copyright © AirNav, LLC. All rights reserved. Privacy Policy  Contact